createdAt,value
2019-04-10T00:02:16.197Z,35.23
2019-04-10T00:04:48.063Z,35.33
2019-04-10T00:07:21.148Z,33.83
2019-04-10T00:09:53.603Z,36.40
2019-04-10T00:12:25.565Z,36.20
2019-04-10T00:14:57.603Z,33.77
2019-04-10T00:17:29.317Z,34.27
2019-04-10T00:20:02.402Z,35.70
2019-04-10T00:22:34.246Z,35.37
2019-04-10T00:25:06.197Z,33.00
2019-04-10T00:27:38.936Z,35.00
2019-04-10T00:30:11.298Z,34.87
2019-04-10T00:32:43.930Z,34.17
2019-04-10T00:35:15.631Z,35.37
2019-04-10T00:37:47.381Z,32.97
2019-04-10T00:40:19.330Z,33.95
2019-04-10T00:42:51.609Z,34.93
2019-04-10T00:45:23.652Z,32.95
2019-04-10T00:47:55.338Z,35.53
2019-04-10T00:50:27.145Z,34.08
2019-04-10T00:52:58.862Z,33.67
2019-04-10T00:55:30.603Z,32.77
2019-04-10T00:58:02.364Z,34.17
2019-04-10T01:00:36.455Z,34.07
2019-04-10T01:03:09.279Z,33.53
2019-04-10T01:05:41.646Z,33.37
2019-04-10T01:08:13.378Z,33.73
2019-04-10T01:10:46.236Z,33.40
2019-04-10T01:13:18.816Z,34.35
2019-04-10T01:15:51.002Z,33.30
2019-04-10T01:18:23.392Z,33.30
2019-04-10T01:20:55.691Z,33.98
2019-04-10T01:23:27.570Z,34.33
2019-04-10T01:25:59.597Z,33.30
2019-04-10T01:28:31.329Z,34.30
2019-04-10T01:31:03.225Z,33.73
2019-04-10T01:33:35.004Z,33.87
2019-04-10T01:36:07.021Z,31.70
2019-04-10T01:38:39.786Z,34.67
2019-04-10T01:41:11.865Z,32.77
2019-04-10T01:43:43.539Z,34.37
2019-04-10T01:46:15.915Z,34.67
2019-04-10T01:48:47.754Z,36.30
2019-04-10T01:51:19.808Z,34.60
2019-04-10T01:53:52.376Z,34.30
2019-04-10T01:56:30.187Z,33.33
2019-04-10T01:58:57.445Z,33.40
2019-04-10T02:01:32.696Z,33.40
2019-04-10T02:04:04.737Z,34.63
2019-04-10T02:06:36.495Z,34.30
2019-04-10T02:09:11.044Z,33.00
2019-04-10T02:11:42.997Z,34.03
2019-04-10T02:14:14.711Z,34.00
2019-04-10T02:16:47.296Z,36.77
2019-04-10T02:19:19.008Z,35.73
2019-04-10T02:21:51.652Z,33.43
2019-04-10T02:24:25.130Z,34.83
2019-04-10T02:26:58.120Z,34.07
2019-04-10T02:29:29.933Z,34.53
2019-04-10T02:32:02.168Z,32.67
2019-04-10T02:34:34.444Z,33.77
2019-04-10T02:37:06.861Z,34.47
2019-04-10T02:39:46.082Z,34.90
2019-04-10T02:42:14.252Z,36.97
2019-04-10T02:44:46.150Z,34.00
2019-04-10T02:47:19.220Z,34.53
2019-04-10T02:49:52.222Z,33.23
2019-04-10T02:52:24.633Z,33.73
2019-04-10T02:54:57.807Z,34.30
2019-04-10T02:57:29.878Z,35.13
2019-04-10T03:00:03.695Z,33.97
2019-04-10T03:02:38.697Z,34.07
2019-04-10T03:05:13.588Z,34.37
2019-04-10T03:07:46.429Z,33.47
2019-04-10T03:10:27.714Z,34.23
2019-04-10T03:12:52.596Z,34.23
2019-04-10T03:15:25.195Z,34.43
2019-04-10T03:17:57.167Z,33.80
2019-04-10T03:20:30.064Z,33.40
2019-04-10T03:23:02.062Z,33.70
2019-04-10T03:25:35.085Z,34.33
2019-04-10T03:28:07.213Z,35.03
2019-04-10T03:30:41.257Z,33.83
2019-04-10T03:33:33.753Z,34.03
2019-04-10T03:36:05.301Z,34.57
2019-04-10T03:38:49.453Z,35.30
2019-04-10T03:41:12.270Z,33.28
2019-04-10T03:43:45.810Z,32.10
2019-04-10T03:46:17.585Z,34.27
2019-04-10T03:48:49.505Z,32.70
2019-04-10T03:51:22.859Z,33.50
2019-04-10T03:53:54.931Z,33.90
2019-04-10T03:56:26.974Z,32.35
2019-04-10T03:58:59.877Z,31.80
2019-04-10T04:01:32.045Z,33.28
2019-04-10T04:04:04.885Z,32.90
2019-04-10T04:06:36.945Z,31.17
2019-04-10T04:09:11.581Z,34.40
2019-04-10T04:11:42.609Z,32.37
2019-04-10T04:14:14.488Z,34.77
2019-04-10T04:16:47.064Z,31.63
2019-04-10T04:19:18.960Z,30.10
2019-04-10T04:21:50.717Z,31.53
2019-04-10T04:24:25.488Z,32.85
2019-04-10T04:26:58.696Z,34.37
2019-04-10T04:29:30.536Z,32.53
2019-04-10T04:32:02.377Z,31.03
2019-04-10T04:34:34.678Z,31.07
2019-04-10T04:37:06.630Z,31.50
2019-04-10T04:39:39.616Z,32.07
2019-04-10T04:42:11.601Z,33.13
2019-04-10T04:44:43.461Z,33.20
2019-04-10T04:47:15.662Z,33.67
2019-04-10T04:49:47.667Z,31.77
2019-04-10T04:52:20.401Z,31.33
2019-04-10T04:54:53.275Z,49.67
2019-04-10T04:57:25.310Z,33.17
2019-04-10T04:59:57.063Z,35.17
2019-04-10T05:02:28.981Z,34.75
2019-04-10T05:05:00.754Z,34.27
2019-04-10T05:07:33.363Z,33.43
2019-04-10T05:10:07.046Z,33.17
2019-04-10T05:12:38.982Z,32.57
2019-04-10T05:15:12.874Z,34.30
2019-04-10T05:17:45.022Z,40.40
2019-04-10T05:20:17.088Z,42.60
2019-04-10T05:22:49.470Z,36.50
2019-04-10T05:25:22.323Z,33.85
2019-04-10T05:27:55.291Z,41.30
2019-04-10T05:30:27.305Z,37.17
2019-04-10T05:32:59.789Z,36.90
2019-04-10T05:35:32.050Z,49.17
2019-04-10T05:38:04.533Z,37.13
2019-04-10T05:40:36.722Z,32.83
2019-04-10T05:43:09.295Z,39.07
2019-04-10T05:45:42.175Z,35.73
2019-04-10T05:48:15.258Z,40.60
2019-04-10T05:50:54.899Z,37.60
2019-04-10T05:53:21.045Z,33.30
2019-04-10T05:55:53.800Z,36.20
2019-04-10T05:58:25.867Z,36.03
2019-04-10T06:00:59.263Z,36.10
2019-04-10T06:03:31.012Z,39.47
2019-04-10T06:06:04.074Z,35.60
2019-04-10T06:08:37.346Z,35.50
2019-04-10T06:11:09.305Z,29.37
2019-04-10T06:13:41.065Z,31.40
2019-04-10T06:16:12.874Z,29.97
2019-04-10T06:18:45.179Z,28.83
2019-04-10T06:21:17.108Z,29.40
2019-04-10T06:23:49.845Z,30.97
2019-04-10T06:26:21.974Z,31.30
2019-04-10T06:28:54.742Z,31.47
2019-04-10T06:31:26.658Z,31.50
2019-04-10T06:33:58.497Z,29.23
2019-04-10T06:36:33.324Z,27.20
2019-04-10T06:39:07.294Z,88.67
2019-04-10T06:41:39.130Z,30.53
2019-04-10T06:44:12.238Z,30.16
2019-04-10T06:46:44.477Z,30.80
2019-04-10T06:49:17.494Z,28.07
2019-04-10T06:51:49.482Z,30.50
2019-04-10T06:54:21.300Z,30.45
2019-04-10T06:56:53.117Z,32.13
2019-04-10T06:59:26.205Z,29.67
2019-04-10T07:02:11.392Z,30.07
2019-04-10T07:04:43.135Z,30.53
2019-04-10T07:07:10.951Z,30.25
2019-04-10T07:09:38.644Z,29.40
2019-04-10T07:12:12.195Z,27.93
2019-04-10T07:14:47.657Z,28.33
2019-04-10T07:17:17.994Z,29.60
2019-04-10T07:19:49.791Z,27.93
2019-04-10T07:22:22.830Z,28.92
2019-04-10T07:24:56.374Z,29.00
2019-04-10T07:27:33.515Z,30.32
2019-04-10T07:30:03.590Z,29.90
2019-04-10T07:32:36.137Z,29.17
2019-04-10T07:35:08.968Z,30.23
2019-04-10T07:37:40.778Z,29.67
2019-04-10T07:40:12.741Z,29.97
2019-04-10T07:42:44.571Z,28.90
2019-04-10T07:45:17.044Z,30.30
2019-04-10T07:47:48.854Z,30.47
2019-04-10T07:50:20.797Z,29.87
2019-04-10T07:52:52.559Z,28.70
2019-04-10T07:55:25.360Z,26.27
2019-04-10T07:57:57.398Z,27.20
2019-04-10T08:00:29.229Z,29.55
2019-04-10T08:03:00.989Z,30.23
2019-04-10T08:05:33.296Z,29.70
2019-04-10T08:08:05.277Z,29.03
2019-04-10T08:10:37.348Z,31.40
2019-04-10T08:13:09.179Z,29.37
2019-04-10T08:15:41.284Z,28.73
2019-04-10T08:18:13.347Z,29.43
2019-04-10T08:20:45.155Z,29.63
2019-04-10T08:23:17.565Z,29.33
2019-04-10T08:25:49.657Z,28.80
2019-04-10T08:28:22.047Z,29.98
2019-04-10T08:30:54.658Z,31.87
2019-04-10T08:33:26.485Z,29.37
2019-04-10T08:35:58.987Z,27.47
2019-04-10T08:38:30.776Z,27.20
2019-04-10T08:41:02.912Z,29.70
2019-04-10T08:43:34.644Z,28.70
2019-04-10T08:46:06.522Z,30.77
2019-04-10T08:48:39.194Z,30.30
2019-04-10T08:51:11.957Z,30.32
2019-04-10T08:53:44.599Z,29.33
2019-04-10T08:56:16.523Z,32.48
2019-04-10T08:58:48.398Z,29.77
2019-04-10T09:01:21.469Z,39.00
2019-04-10T09:03:53.555Z,32.20
2019-04-10T09:06:25.294Z,33.85
2019-04-10T09:08:57.258Z,30.70
2019-04-10T09:11:30.154Z,30.37
2019-04-10T09:14:03.135Z,29.27
2019-04-10T09:16:34.909Z,27.43
2019-04-10T09:19:06.785Z,29.87
2019-04-10T09:21:39.648Z,28.23
2019-04-10T09:24:14.571Z,27.83
2019-04-10T09:26:45.132Z,26.53
2019-04-10T09:29:18.093Z,27.32
2019-04-10T09:31:50.311Z,25.57
2019-04-10T09:34:23.352Z,27.90
2019-04-10T09:36:55.173Z,25.87
2019-04-10T09:39:29.600Z,25.53
2019-04-10T09:42:01.780Z,27.03
2019-04-10T09:44:35.837Z,26.40
2019-04-10T09:47:09.625Z,25.93
2019-04-10T09:49:45.857Z,26.40
2019-04-10T09:52:15.520Z,24.87
2019-04-10T09:54:47.361Z,25.40
2019-04-10T09:57:20.116Z,24.53
2019-04-10T09:59:52.627Z,25.27
2019-04-10T10:02:25.241Z,25.08
2019-04-10T10:04:57.785Z,23.07
2019-04-10T10:07:29.902Z,24.87
2019-04-10T10:10:02.163Z,24.87
2019-04-10T10:12:36.402Z,23.67
2019-04-10T10:15:09.507Z,21.87
2019-04-10T10:17:41.513Z,23.37
2019-04-10T10:20:15.376Z,21.77
2019-04-10T10:22:47.468Z,21.57
2019-04-10T10:25:19.513Z,19.95
2019-04-10T10:27:51.267Z,22.30
2019-04-10T10:30:23.325Z,20.68
2019-04-10T10:32:55.230Z,22.00
2019-04-10T10:35:27.328Z,21.83
2019-04-10T10:37:59.233Z,22.33
2019-04-10T10:40:32.240Z,21.07
2019-04-10T10:43:04.446Z,20.00
2019-04-10T10:45:36.689Z,19.40
2019-04-10T10:48:09.620Z,21.97
2019-04-10T10:50:41.642Z,20.37
2019-04-10T10:53:14.336Z,21.63
2019-04-10T10:55:47.514Z,22.10
2019-04-10T10:58:19.729Z,21.07
2019-04-10T11:00:51.766Z,21.80
2019-04-10T11:03:24.494Z,20.40
2019-04-10T11:05:56.437Z,19.60
2019-04-10T11:08:29.449Z,19.85
2019-04-10T11:11:01.521Z,19.40
2019-04-10T11:13:33.352Z,20.50
2019-04-10T11:16:07.106Z,19.87
2019-04-10T11:18:38.831Z,21.27
2019-04-10T11:21:12.749Z,21.55
2019-04-10T11:23:44.704Z,21.93
2019-04-10T11:26:21.510Z,19.70
2019-04-10T11:28:50.185Z,22.17
2019-04-10T11:31:23.788Z,20.23
2019-04-10T11:33:56.711Z,21.17
2019-04-10T11:36:29.995Z,20.02
2019-04-10T11:39:11.988Z,20.93
2019-04-10T11:41:37.398Z,18.93
2019-04-10T11:44:11.551Z,20.17
2019-04-10T11:46:44.022Z,19.37
2019-04-10T11:49:17.792Z,19.67
2019-04-10T11:51:52.993Z,19.47
2019-04-10T11:54:26.922Z,19.23
2019-04-10T11:57:19.816Z,19.55
2019-04-10T11:59:50.709Z,19.47
2019-04-10T12:02:24.956Z,18.67
2019-04-10T12:05:01.585Z,17.63
2019-04-10T12:08:00.062Z,17.53
2019-04-10T12:12:37.611Z,17.73
2019-04-10T12:15:10.197Z,17.93
2019-04-10T12:17:43.092Z,16.70
2019-04-10T12:20:16.632Z,17.67
2019-04-10T12:22:48.813Z,16.87
2019-04-10T12:25:21.274Z,16.00
2019-04-10T12:27:53.560Z,16.33
2019-04-10T12:30:26.922Z,15.53
2019-04-10T12:32:59.133Z,17.40
2019-04-10T12:35:31.916Z,14.78
2019-04-10T12:38:09.732Z,15.87
2019-04-10T12:40:38.950Z,17.73
2019-04-10T12:43:12.682Z,16.80
2019-04-10T12:45:44.587Z,18.57
2019-04-10T12:48:16.680Z,15.83
2019-04-10T12:50:49.495Z,16.97
2019-04-10T12:53:21.591Z,17.87
2019-04-10T12:55:53.641Z,18.10
2019-04-10T12:58:26.619Z,17.98
2019-04-10T13:00:58.520Z,18.60
2019-04-10T13:03:31.325Z,18.37
2019-04-10T13:06:03.388Z,19.17
2019-04-10T13:08:54.673Z,19.03
2019-04-10T13:11:10.019Z,18.57
2019-04-10T13:13:42.291Z,19.27
2019-04-10T13:16:14.279Z,19.27
2019-04-10T13:18:46.860Z,18.23
2019-04-10T13:21:20.238Z,16.80
2019-04-10T13:23:53.030Z,18.70
2019-04-10T13:26:26.013Z,19.05
2019-04-10T13:28:58.155Z,19.47
2019-04-10T13:31:30.045Z,18.87
2019-04-10T13:34:02.809Z,18.23
2019-04-10T13:36:35.630Z,21.60
2019-04-10T13:39:08.754Z,18.53
2019-04-10T13:41:40.828Z,17.80
2019-04-10T13:44:14.049Z,16.70
2019-04-10T13:46:45.929Z,17.50
2019-04-10T13:49:17.818Z,17.42
2019-04-10T13:51:50.072Z,16.63
2019-04-10T13:54:22.816Z,17.27
2019-04-10T13:56:55.215Z,17.93
2019-04-10T13:59:27.103Z,17.82
2019-04-10T14:01:59.003Z,17.43
2019-04-10T14:04:31.312Z,18.17
2019-04-10T14:07:04.935Z,17.97
2019-04-10T14:09:43.985Z,18.60
2019-04-10T14:12:12.890Z,16.62
2019-04-10T14:14:48.890Z,21.53
2019-04-10T14:17:21.534Z,17.85
2019-04-10T14:19:54.116Z,18.03
2019-04-10T14:22:26.102Z,18.48
2019-04-10T14:24:58.889Z,18.73
2019-04-10T14:27:32.097Z,18.93
2019-04-10T14:30:06.985Z,19.63
2019-04-10T14:32:39.858Z,19.23
2019-04-10T14:35:12.195Z,19.50
2019-04-10T14:37:43.951Z,21.03
2019-04-10T14:40:16.820Z,25.93
2019-04-10T14:42:49.442Z,36.07
2019-04-10T14:45:21.667Z,33.85
2019-04-10T14:47:53.936Z,30.27
2019-04-10T14:50:26.187Z,30.27
2019-04-10T14:52:59.155Z,37.33
2019-04-10T14:55:31.617Z,67.70
2019-04-10T14:58:03.971Z,36.13
2019-04-10T15:00:51.003Z,30.23
2019-04-10T15:03:24.369Z,23.18
2019-04-10T15:05:58.286Z,22.93
2019-04-10T15:08:31.472Z,22.70
2019-04-10T15:11:04.517Z,24.30
2019-04-10T15:13:36.698Z,28.13
2019-04-10T15:16:12.707Z,22.93
2019-04-10T15:18:45.838Z,29.57
2019-04-10T15:21:18.661Z,21.50
2019-04-10T15:23:51.079Z,31.33
2019-04-10T15:26:23.996Z,39.27
2019-04-10T15:28:56.250Z,33.87
2019-04-10T15:31:29.063Z,22.73
2019-04-10T15:34:01.629Z,24.50
2019-04-10T15:36:33.997Z,31.77
2019-04-10T15:39:09.223Z,39.50
2019-04-10T15:41:41.336Z,29.03
2019-04-10T15:44:15.371Z,36.97
2019-04-10T15:46:49.059Z,23.27
2019-04-10T15:49:21.170Z,28.50
2019-04-10T15:51:53.712Z,33.93
2019-04-10T15:54:25.818Z,39.75
2019-04-10T15:56:58.344Z,25.80
2019-04-10T15:59:30.326Z,21.57
2019-04-10T16:02:03.536Z,21.87
2019-04-10T16:04:35.842Z,19.60
2019-04-10T16:07:08.240Z,20.70
2019-04-10T16:09:47.468Z,18.10
2019-04-10T16:12:18.621Z,19.17
2019-04-10T16:14:50.917Z,18.23
2019-04-10T16:17:31.439Z,17.83
2019-04-10T16:20:17.601Z,18.00
2019-04-10T16:23:08.094Z,16.30
2019-04-10T16:25:44.763Z,17.43
2019-04-10T16:28:17.910Z,17.42
2019-04-10T16:30:50.900Z,18.37
2019-04-10T16:33:23.209Z,17.50
2019-04-10T16:35:55.251Z,18.53
2019-04-10T16:38:27.189Z,17.42
2019-04-10T16:40:58.963Z,19.53
2019-04-10T16:43:30.874Z,18.73
2019-04-10T16:46:03.265Z,17.17
2019-04-10T16:48:35.839Z,18.60
2019-04-10T16:51:08.144Z,18.63
2019-04-10T16:53:41.227Z,18.80
2019-04-10T16:56:21.400Z,18.17
2019-04-10T16:58:53.184Z,21.17
2019-04-10T17:01:25.188Z,24.90
2019-04-10T17:03:57.152Z,26.53
2019-04-10T17:06:30.262Z,21.40
2019-04-10T17:09:02.709Z,32.23
2019-04-10T17:11:36.864Z,27.80
2019-04-10T17:14:09.000Z,23.10
2019-04-10T17:16:41.951Z,19.00
2019-04-10T17:19:14.033Z,17.43
2019-04-10T17:21:46.739Z,17.43
2019-04-10T17:24:18.893Z,24.85
2019-04-10T17:26:52.054Z,15.40
2019-04-10T17:29:25.032Z,20.55
2019-04-10T17:31:57.156Z,24.07
2019-04-10T17:34:30.454Z,17.00
2019-04-10T17:37:02.898Z,17.37
2019-04-10T17:39:35.561Z,18.67
2019-04-10T17:42:08.111Z,18.30
2019-04-10T17:44:40.307Z,18.10
2019-04-10T17:47:12.739Z,18.83
2019-04-10T17:49:44.924Z,17.20
2019-04-10T17:52:17.057Z,20.55
2019-04-10T17:54:49.203Z,18.27
2019-04-10T17:57:33.657Z,17.87
2019-04-10T17:59:58.578Z,20.63
2019-04-10T18:03:19.074Z,18.00
2019-04-10T18:05:57.090Z,18.07
2019-04-10T18:08:30.102Z,16.43
2019-04-10T18:11:02.067Z,15.80
2019-04-10T18:13:38.413Z,18.20
2019-04-10T18:16:12.967Z,16.47
2019-04-10T18:18:45.702Z,16.27
2019-04-10T18:21:20.273Z,17.35
2019-04-10T18:23:52.526Z,22.23
2019-04-10T18:26:27.744Z,20.12
2019-04-10T18:29:00.852Z,19.77
2019-04-10T18:31:34.736Z,15.47
2019-04-10T18:34:10.163Z,13.07
2019-04-10T18:36:42.604Z,14.10
2019-04-10T18:39:19.408Z,13.80
2019-04-10T18:41:51.996Z,12.43
2019-04-10T18:44:25.333Z,13.98
2019-04-10T18:46:57.595Z,13.73
2019-04-10T18:49:29.842Z,13.83
2019-04-10T18:52:03.208Z,14.13
2019-04-10T18:54:36.050Z,14.20
2019-04-10T18:57:09.346Z,15.97
2019-04-10T18:59:54.606Z,14.27
2019-04-10T19:02:48.840Z,20.27
2019-04-10T19:05:24.751Z,30.85
2019-04-10T19:07:57.027Z,25.33
2019-04-10T19:10:30.605Z,22.50
2019-04-10T19:13:05.602Z,26.73
2019-04-10T19:15:39.913Z,21.37
2019-04-10T19:18:13.117Z,13.70
2019-04-10T19:20:45.631Z,26.87
2019-04-10T19:23:21.009Z,18.85
2019-04-10T19:25:54.674Z,14.60
2019-04-10T19:28:32.265Z,15.80
2019-04-10T19:31:11.102Z,14.27
2019-04-10T19:33:40.156Z,15.17
2019-04-10T19:36:12.170Z,13.00
2019-04-10T19:38:45.269Z,12.77
2019-04-10T19:41:25.750Z,12.20
2019-04-10T19:43:52.709Z,11.57
2019-04-10T19:46:25.842Z,11.20
2019-04-10T19:48:58.048Z,11.83
2019-04-10T19:51:30.319Z,11.67
2019-04-10T19:54:05.342Z,12.60
2019-04-10T19:56:37.001Z,11.47
2019-04-10T19:59:10.440Z,11.47
2019-04-10T20:01:42.752Z,12.00
2019-04-10T20:04:14.871Z,11.30
2019-04-10T20:06:47.042Z,12.90
2019-04-10T20:09:20.088Z,11.60
2019-04-10T20:11:55.282Z,13.17
2019-04-10T20:14:25.963Z,12.25
2019-04-10T20:16:58.117Z,12.03
2019-04-10T20:19:30.740Z,12.63
2019-04-10T20:22:04.114Z,12.63
2019-04-10T20:24:36.721Z,12.63
2019-04-10T20:27:09.909Z,14.57
2019-04-10T20:29:43.431Z,13.20
2019-04-10T20:32:17.857Z,15.83
2019-04-10T20:34:49.958Z,13.37
2019-04-10T20:37:22.930Z,15.63
2019-04-10T20:39:55.881Z,14.93
2019-04-10T20:42:28.166Z,20.50
2019-04-10T20:45:00.879Z,14.13
2019-04-10T20:47:35.139Z,11.83
2019-04-10T20:50:07.931Z,10.97
2019-04-10T20:52:41.033Z,13.37
2019-04-10T20:55:13.834Z,17.67
2019-04-10T20:57:46.122Z,13.07
2019-04-10T21:00:30.070Z,12.25
2019-04-10T21:03:02.837Z,11.80
2019-04-10T21:05:35.897Z,12.13
2019-04-10T21:08:09.305Z,12.63
2019-04-10T21:10:41.280Z,14.47
2019-04-10T21:13:13.280Z,13.27
2019-04-10T21:15:46.242Z,16.57
2019-04-10T21:18:19.507Z,12.75
2019-04-10T21:20:51.795Z,13.30
2019-04-10T21:23:23.831Z,11.97
2019-04-10T21:25:55.712Z,12.67
2019-04-10T21:28:28.314Z,10.72
2019-04-10T21:31:25.714Z,12.17
2019-04-10T21:34:20.254Z,14.27
2019-04-10T21:36:53.282Z,13.03
2019-04-10T21:39:25.583Z,11.85
2019-04-10T21:42:10.126Z,13.53
2019-04-10T21:44:31.497Z,12.40
2019-04-10T21:47:03.565Z,11.53
2019-04-10T21:49:35.943Z,11.90
2019-04-10T21:52:07.863Z,15.17
2019-04-10T21:54:48.521Z,14.43
2019-04-10T21:57:13.814Z,12.13
2019-04-10T21:59:45.714Z,15.07
2019-04-10T22:02:17.748Z,11.17
2019-04-10T22:04:49.838Z,12.17
2019-04-10T22:07:35.030Z,9.95
2019-04-10T22:10:17.905Z,12.17
2019-04-10T22:12:52.158Z,11.87
2019-04-10T22:15:31.190Z,9.80
2019-04-10T22:18:03.145Z,10.07
2019-04-10T22:20:36.023Z,10.70
2019-04-10T22:23:09.833Z,8.83
2019-04-10T22:25:41.742Z,9.90
2019-04-10T22:28:14.876Z,9.33
2019-04-10T22:30:46.922Z,9.60
2019-04-10T22:33:18.768Z,9.40
2019-04-10T22:35:50.971Z,8.73
2019-04-10T22:38:22.922Z,9.03
2019-04-10T22:40:55.975Z,9.70
2019-04-10T22:43:28.074Z,8.85
2019-04-10T22:46:00.465Z,9.43
2019-04-10T22:48:32.894Z,9.90
2019-04-10T22:51:07.967Z,9.48
2019-04-10T22:53:39.648Z,9.37
2019-04-10T22:56:11.690Z,10.47
2019-04-10T22:58:44.181Z,10.90
2019-04-10T23:01:16.167Z,9.83
2019-04-10T23:03:48.078Z,10.60
2019-04-10T23:06:20.831Z,9.97
2019-04-10T23:08:52.757Z,10.50
2019-04-10T23:11:34.847Z,8.98
2019-04-10T23:13:58.522Z,7.70
2019-04-10T23:16:30.499Z,8.60
2019-04-10T23:19:03.452Z,8.73
2019-04-10T23:21:36.603Z,9.77
2019-04-10T23:24:09.540Z,11.17
2019-04-10T23:26:41.607Z,10.27
2019-04-10T23:29:13.923Z,8.60
2019-04-10T23:31:45.889Z,7.67
2019-04-10T23:34:18.867Z,9.53
2019-04-10T23:36:50.879Z,17.30
2019-04-10T23:39:23.902Z,8.78
2019-04-10T23:41:56.906Z,8.23
2019-04-10T23:44:29.158Z,7.67
2019-04-10T23:47:02.046Z,9.03
2019-04-10T23:49:33.922Z,9.23
2019-04-10T23:52:07.606Z,10.97
2019-04-10T23:54:41.542Z,9.30
2019-04-10T23:57:13.592Z,7.37
2019-04-10T23:59:45.300Z,7.53
